Time;durP1;ratioP1;P1;durP2;ratioP2;P2;SDS_P1;SDS_P2;PMS_P1;PMS_P2;Temp;Humidity;BMP_temperature;BMP_pressure;BME280_temperature;BME280_humidity;BME280_pressure;Samples;Min_cycle;Max_cycle;Signal;HPM_P1;HPM_P2
2023/05/23 00:00:58;;;;;;;67.20;35.92;;;13.10;91.10;;;;;;4875764;29;20043;-86
2023/05/23 00:03:27;;;;;;;65.50;36.22;;;13.10;91.10;;;;;;4903741;29;20040;-86
2023/05/23 00:05:53;;;;;;;72.18;35.60;;;13.10;91.10;;;;;;4892570;29;20124;-86
2023/05/23 00:08:19;;;;;;;65.60;35.95;;;13.20;91.00;;;;;;4888989;29;20100;-84
2023/05/23 00:10:44;;;;;;;61.58;32.70;;;13.20;90.90;;;;;;4897685;29;20048;-85
2023/05/23 00:13:13;;;;;;;65.65;32.80;;;13.20;91.00;;;;;;4896962;29;20133;-87
2023/05/23 00:15:40;;;;;;;65.90;30.20;;;13.10;91.00;;;;;;4903209;29;20492;-85
2023/05/23 00:18:07;;;;;;;61.72;30.83;;;13.10;91.20;;;;;;4886534;29;20040;-86
2023/05/23 00:20:39;;;;;;;48.42;29.13;;;13.20;91.10;;;;;;4909779;29;20123;-86
2023/05/23 00:23:06;;;;;;;55.22;29.58;;;13.20;91.10;;;;;;4887107;29;20040;-87
2023/05/23 00:25:35;;;;;;;49.97;30.00;;;13.20;91.10;;;;;;4884169;29;20024;-87
2023/05/23 00:28:01;;;;;;;59.80;29.10;;;13.20;91.10;;;;;;4887604;29;20039;-86
2023/05/23 00:30:29;;;;;;;53.47;29.10;;;13.20;91.20;;;;;;4898319;29;20119;-87
2023/05/23 00:32:55;;;;;;;58.65;29.25;;;13.20;91.20;;;;;;4876755;29;20115;-86
2023/05/23 00:35:22;;;;;;;54.20;29.67;;;13.20;91.20;;;;;;4889028;29;20597;-86
2023/05/23 00:37:50;;;;;;;51.67;28.52;;;13.30;91.30;;;;;;4902076;29;20047;-87
2023/05/23 00:40:20;;;;;;;53.17;29.23;;;13.20;91.30;;;;;;4881704;29;20143;-87
2023/05/23 00:42:47;;;;;;;55.22;28.00;;;13.30;91.40;;;;;;4882251;29;20435;-85
2023/05/23 00:45:13;;;;;;;44.10;26.13;;;13.30;91.30;;;;;;4886110;29;20084;-87
2023/05/23 00:47:43;;;;;;;46.90;24.50;;;13.30;91.30;;;;;;4877400;29;20131;-87
2023/05/23 00:50:11;;;;;;;36.67;21.80;;;13.30;91.30;;;;;;4877073;29;20060;-87
2023/05/23 00:52:41;;;;;;;35.63;21.52;;;13.20;91.40;;;;;;4881546;29;20080;-88
2023/05/23 00:55:08;;;;;;;35.95;21.13;;;13.30;91.40;;;;;;4883259;29;20489;-88
2023/05/23 00:57:39;;;;;;;34.88;20.05;;;13.20;91.60;;;;;;4877102;29;20041;-87
2023/05/23 01:00:08;;;;;;;34.22;20.38;;;13.10;91.80;;;;;;4881602;29;20101;-87
2023/05/23 01:02:40;;;;;;;33.17;21.35;;;13.10;91.80;;;;;;4880056;29;20144;-86
2023/05/23 01:05:06;;;;;;;32.10;21.17;;;13.10;91.90;;;;;;4877966;29;20059;-89
2023/05/23 01:07:32;;;;;;;34.63;21.27;;;13.10;92.00;;;;;;4877903;29;20473;-89
2023/05/23 01:09:58;;;;;;;33.95;21.83;;;13.10;92.10;;;;;;4875148;29;20241;-87
2023/05/23 01:13:01;;;;;;;31.60;21.58;;;13.10;92.20;;;;;;4878993;29;20033;-87
2023/05/23 01:15:37;;;;;;;39.55;23.58;;;13.10;92.20;;;;;;4893361;29;20036;-85
2023/05/23 01:18:06;;;;;;;38.67;24.58;;;13.20;92.30;;;;;;4879363;29;20049;-87
2023/05/23 01:21:11;;;;;;;37.78;25.90;;;13.20;92.30;;;;;;4913269;29;20095;-87
2023/05/23 01:23:54;;;;;;;39.25;25.77;;;13.20;92.30;;;;;;4846772;29;20045;-87
2023/05/23 01:26:47;;;;;;;48.80;27.50;;;13.20;92.30;;;;;;4877573;29;20095;-87
2023/05/23 01:29:23;;;;;;;46.25;27.80;;;13.20;92.40;;;;;;4908835;29;20160;-86
2023/05/23 01:31:53;;;;;;;44.58;27.73;;;13.20;92.40;;;;;;4891959;29;20060;-84
2023/05/23 01:34:20;;;;;;;43.85;27.90;;;13.30;92.40;;;;;;4910075;29;20028;-87
2023/05/23 01:36:49;;;;;;;49.22;28.25;;;13.20;92.40;;;;;;4903655;29;20041;-87
2023/05/23 01:39:15;;;;;;;48.72;29.00;;;13.30;92.50;;;;;;4869784;29;20354;-87
2023/05/23 01:41:41;;;;;;;45.42;29.08;;;13.30;92.40;;;;;;4888480;29;20463;-88
2023/05/23 01:44:07;;;;;;;49.80;29.27;;;13.30;92.40;;;;;;4872298;29;20028;-87
2023/05/23 01:46:34;;;;;;;55.60;31.50;;;13.30;92.40;;;;;;4895036;29;20036;-88
2023/05/23 01:49:03;;;;;;;57.45;32.45;;;13.20;92.30;;;;;;4891717;29;20036;-87
2023/05/23 01:51:29;;;;;;;59.63;32.67;;;13.30;92.40;;;;;;4877674;29;20534;-88
2023/05/23 01:53:56;;;;;;;61.75;33.72;;;13.20;92.30;;;;;;4901753;29;20334;-87
2023/05/23 01:56:22;;;;;;;54.10;32.28;;;13.30;92.30;;;;;;4892484;29;20044;-88
2023/05/23 01:58:47;;;;;;;56.45;34.75;;;13.30;92.30;;;;;;4889070;29;20101;-86
2023/05/23 02:01:14;;;;;;;62.08;33.70;;;13.30;92.00;;;;;;4879514;29;20168;-87
2023/05/23 02:03:39;;;;;;;62.78;33.97;;;13.30;92.10;;;;;;4880673;29;20036;-87
2023/05/23 02:06:05;;;;;;;59.92;32.38;;;13.20;92.00;;;;;;4892332;29;20041;-85
2023/05/23 02:08:31;;;;;;;55.03;32.78;;;13.30;91.80;;;;;;4879368;29;20135;-87
2023/05/23 02:10:57;;;;;;;55.38;33.78;;;13.30;91.80;;;;;;4876410;29;20052;-87
2023/05/23 02:13:22;;;;;;;56.58;31.08;;;13.30;91.50;;;;;;4877836;29;20025;-86
2023/05/23 02:15:48;;;;;;;55.63;30.70;;;13.40;91.30;;;;;;4892033;29;20032;-87
2023/05/23 02:18:14;;;;;;;54.63;30.33;;;13.30;91.20;;;;;;4891614;29;20032;-86
2023/05/23 02:20:39;;;;;;;50.63;28.48;;;13.30;91.10;;;;;;4897423;29;20036;-87
2023/05/23 02:23:05;;;;;;;54.17;28.45;;;13.30;91.00;;;;;;4871167;29;20492;-87
2023/05/23 02:25:31;;;;;;;45.58;26.85;;;13.30;90.80;;;;;;4878246;29;20032;-87
2023/05/23 02:27:57;;;;;;;49.72;27.02;;;13.30;90.70;;;;;;4872042;29;20033;-87
2023/05/23 02:30:23;;;;;;;43.28;25.88;;;13.30;90.60;;;;;;4882117;29;20040;-86
2023/05/23 02:32:48;;;;;;;49.80;25.02;;;13.30;90.50;;;;;;4876144;29;20549;-89
2023/05/23 02:35:14;;;;;;;49.83;24.73;;;13.40;90.40;;;;;;4877226;29;20037;-87
2023/05/23 02:37:40;;;;;;;44.55;23.70;;;13.30;90.30;;;;;;4884424;29;20060;-87
2023/05/23 02:40:06;;;;;;;49.05;24.33;;;13.40;90.30;;;;;;4875318;29;20084;-87
2023/05/23 02:42:33;;;;;;;50.33;24.20;;;13.40;90.20;;;;;;4874006;29;20044;-87
2023/05/23 02:44:59;;;;;;;43.10;23.67;;;13.30;90.20;;;;;;4888046;29;20016;-86
2023/05/23 02:47:24;;;;;;;45.17;23.25;;;13.40;90.20;;;;;;4896579;29;20036;-87
2023/05/23 02:49:50;;;;;;;39.85;21.48;;;13.40;90.10;;;;;;4874326;29;20559;-88
2023/05/23 02:52:16;;;;;;;39.88;20.38;;;13.30;89.90;;;;;;4877705;29;20044;-88
2023/05/23 02:54:42;;;;;;;36.83;20.60;;;13.30;90.10;;;;;;4894068;29;20083;-88
2023/05/23 02:57:08;;;;;;;41.72;22.08;;;13.30;89.90;;;;;;4876362;29;20044;-88
2023/05/23 02:59:33;;;;;;;44.50;21.85;;;13.30;89.90;;;;;;4883311;29;20028;-87
2023/05/23 03:01:59;;;;;;;43.33;22.67;;;13.30;89.90;;;;;;4877459;29;20153;-89
2023/05/23 03:04:26;;;;;;;43.13;24.20;;;13.20;90.00;;;;;;4882760;29;20029;-86
2023/05/23 03:06:54;;;;;;;43.53;24.08;;;13.20;90.00;;;;;;4876560;29;20040;-87
2023/05/23 03:09:20;;;;;;;41.90;22.83;;;13.20;90.20;;;;;;4877474;29;20067;-87
2023/05/23 03:11:47;;;;;;;39.53;22.15;;;13.20;90.00;;;;;;4879681;29;20068;-88
2023/05/23 03:14:13;;;;;;;47.53;22.73;;;13.30;90.10;;;;;;4891558;29;20028;-88
2023/05/23 03:16:39;;;;;;;39.55;20.83;;;13.30;90.00;;;;;;4880627;29;20060;-89
2023/05/23 03:19:04;;;;;;;40.38;21.88;;;13.30;89.70;;;;;;4880710;29;20111;-87
2023/05/23 03:21:31;;;;;;;39.33;21.48;;;13.30;89.70;;;;;;4908835;29;20028;-86
2023/05/23 03:23:57;;;;;;;39.90;22.05;;;13.40;89.80;;;;;;4898371;29;20122;-86
2023/05/23 03:26:23;;;;;;;41.33;20.65;;;13.30;89.70;;;;;;4893913;29;20068;-87
2023/05/23 03:28:50;;;;;;;45.30;24.25;;;13.40;89.60;;;;;;4896016;29;20033;-87
2023/05/23 03:31:16;;;;;;;38.10;22.40;;;13.30;89.70;;;;;;4884323;29;20153;-87
2023/05/23 03:33:41;;;;;;;42.47;21.58;;;13.30;89.80;;;;;;4883176;29;20508;-86
2023/05/23 03:36:07;;;;;;;41.58;21.50;;;13.30;89.80;;;;;;4901894;29;20044;-87
2023/05/23 03:38:33;;;;;;;44.63;22.17;;;13.40;89.90;;;;;;4880474;29;20044;-88
2023/05/23 03:40:59;;;;;;;39.60;20.77;;;13.30;89.80;;;;;;4883238;29;20043;-87
2023/05/23 03:43:24;;;;;;;47.42;20.90;;;13.30;89.70;;;;;;4881454;29;20499;-87
2023/05/23 03:45:50;;;;;;;39.55;20.70;;;13.30;89.50;;;;;;4884802;29;20310;-88
2023/05/23 03:48:16;;;;;;;29.70;18.23;;;13.30;89.30;;;;;;4878352;29;20024;-89
2023/05/23 03:50:42;;;;;;;40.00;19.25;;;13.20;89.30;;;;;;4896445;29;20159;-89
2023/05/23 03:53:07;;;;;;;36.70;18.13;;;13.10;89.10;;;;;;4887062;29;20454;-86
2023/05/23 03:55:33;;;;;;;35.72;18.38;;;13.10;89.20;;;;;;4880973;29;20134;-87
2023/05/23 03:57:59;;;;;;;35.20;17.63;;;13.10;89.20;;;;;;4894155;29;20051;-87
2023/05/23 04:00:27;;;;;;;38.85;18.50;;;13.10;89.10;;;;;;4882187;29;20029;-88
2023/05/23 04:02:53;;;;;;;36.20;18.58;;;13.10;89.00;;;;;;4876385;29;20055;-89
2023/05/23 04:05:19;;;;;;;44.95;19.45;;;13.10;88.90;;;;;;4878380;29;20029;-89
2023/05/23 04:07:44;;;;;;;37.13;18.77;;;13.10;88.80;;;;;;4875730;29;20037;-88
2023/05/23 04:10:11;;;;;;;36.85;18.25;;;13.10;88.90;;;;;;4879818;29;20064;-87
2023/05/23 04:12:40;;;;;;;37.08;17.27;;;13.10;88.80;;;;;;4876487;29;20071;-89
2023/05/23 04:15:06;;;;;;;40.50;18.30;;;13.00;88.70;;;;;;4880281;29;20036;-88
2023/05/23 04:17:32;;;;;;;37.28;18.40;;;13.00;88.50;;;;;;4891437;29;20148;-86
2023/05/23 04:19:58;;;;;;;36.53;16.83;;;13.00;88.30;;;;;;4897371;29;20033;-88
2023/05/23 04:22:24;;;;;;;36.20;17.38;;;13.00;88.20;;;;;;4912812;29;20036;-85
2023/05/23 04:24:49;;;;;;;30.85;15.13;;;13.00;88.20;;;;;;4897045;29;20076;-85
2023/05/23 04:27:15;;;;;;;33.20;15.63;;;13.00;88.10;;;;;;4881055;29;20036;-89
2023/05/23 04:29:41;;;;;;;32.35;16.75;;;13.10;87.90;;;;;;4881274;29;20155;-87
2023/05/23 04:32:07;;;;;;;37.05;16.10;;;13.00;87.70;;;;;;4883230;29;20465;-88
2023/05/23 04:34:33;;;;;;;31.77;14.32;;;13.00;87.80;;;;;;4878356;29;20417;-88
2023/05/23 04:37:02;;;;;;;39.45;16.40;;;13.10;87.80;;;;;;4878113;29;20044;-88
2023/05/23 04:39:28;;;;;;;35.55;14.95;;;13.10;87.70;;;;;;4879888;29;20738;-87
2023/05/23 04:41:55;;;;;;;33.83;14.75;;;13.00;87.30;;;;;;4879273;29;20140;-88
2023/05/23 04:44:25;;;;;;;32.80;14.50;;;13.00;87.30;;;;;;4881434;29;20032;-88
2023/05/23 04:46:51;;;;;;;37.35;15.38;;;13.00;87.30;;;;;;4895361;29;20124;-89
2023/05/23 04:49:20;;;;;;;32.05;15.93;;;13.10;87.10;;;;;;4886502;29;20123;-90
2023/05/23 04:51:45;;;;;;;36.60;14.68;;;13.00;87.10;;;;;;4878183;29;20120;-89
2023/05/23 04:54:11;;;;;;;30.98;15.32;;;13.00;87.00;;;;;;4877130;29;20513;-89
2023/05/23 04:56:37;;;;;;;35.58;14.80;;;13.00;86.80;;;;;;4873461;29;20039;-88
2023/05/23 04:59:02;;;;;;;32.38;14.80;;;13.00;86.70;;;;;;4881574;29;20052;-87
2023/05/23 05:01:28;;;;;;;31.45;14.25;;;13.00;86.60;;;;;;4881652;29;20627;-88
2023/05/23 05:03:54;;;;;;;31.67;14.40;;;13.00;86.70;;;;;;4878621;29;20100;-87
2023/05/23 05:06:20;;;;;;;34.95;15.90;;;13.10;86.70;;;;;;4896713;29;20029;-87
2023/05/23 05:08:46;;;;;;;35.65;16.55;;;13.00;86.60;;;;;;4894690;29;20020;-86
2023/05/23 05:11:11;;;;;;;38.25;16.30;;;13.00;86.60;;;;;;4890059;29;20075;-85
2023/05/23 05:13:37;;;;;;;39.28;16.05;;;12.90;86.70;;;;;;4891073;29;20032;-87
2023/05/23 05:16:03;;;;;;;37.33;16.23;;;13.00;86.60;;;;;;4897887;29;20059;-86
2023/05/23 05:18:29;;;;;;;34.83;15.77;;;13.00;86.60;;;;;;4894418;29;20056;-85
2023/05/23 05:20:56;;;;;;;36.55;16.95;;;12.90;86.30;;;;;;4899416;29;20036;-87
2023/05/23 05:23:29;;;;;;;37.25;15.82;;;12.90;86.30;;;;;;4911706;29;20216;-86
2023/05/23 05:25:59;;;;;;;36.05;15.55;;;12.80;86.20;;;;;;4892556;29;20037;-88
2023/05/23 05:28:25;;;;;;;34.63;14.52;;;12.90;86.20;;;;;;4903448;29;20024;-87
2023/05/23 05:30:54;;;;;;;28.27;14.52;;;12.80;85.30;;;;;;4890596;29;20039;-86
2023/05/23 05:33:23;;;;;;;30.25;13.88;;;12.80;84.80;;;;;;4889591;29;20027;-87
2023/05/23 05:35:52;;;;;;;30.58;14.88;;;12.80;84.50;;;;;;4873993;29;20023;-88
2023/05/23 05:38:43;;;;;;;30.58;14.05;;;12.80;83.90;;;;;;4891072;29;20397;-87
2023/05/23 05:41:11;;;;;;;28.48;13.27;;;12.90;83.60;;;;;;4898784;29;20084;-87
2023/05/23 05:43:37;;;;;;;25.48;12.68;;;12.90;82.30;;;;;;4882622;29;20060;-88
2023/05/23 05:46:43;;;;;;;29.50;13.65;;;13.00;82.40;;;;;;4874367;29;20396;-88
2023/05/23 05:49:09;;;;;;;28.98;12.55;;;13.10;81.90;;;;;;4881214;29;20052;-89
2023/05/23 05:51:35;;;;;;;29.65;12.68;;;13.10;81.60;;;;;;4874305;29;20083;-86
2023/05/23 05:54:01;;;;;;;28.08;13.75;;;13.10;81.30;;;;;;4875725;29;20020;-89
2023/05/23 05:56:27;;;;;;;23.48;12.40;;;13.20;81.20;;;;;;4870172;29;20518;-87
2023/05/23 05:58:52;;;;;;;28.23;12.75;;;13.10;80.20;;;;;;4876073;29;20044;-89
2023/05/23 06:01:22;;;;;;;23.30;11.43;;;13.10;80.10;;;;;;4876630;29;20402;-88
2023/05/23 06:03:48;;;;;;;21.83;11.43;;;13.10;78.90;;;;;;4871305;29;20032;-88
2023/05/23 06:06:13;;;;;;;24.73;10.88;;;13.10;78.10;;;;;;4877521;29;20672;-88
2023/05/23 06:08:41;;;;;;;28.60;12.15;;;13.10;77.70;;;;;;4874103;29;20040;-90
2023/05/23 06:11:06;;;;;;;23.25;10.73;;;13.10;77.60;;;;;;4872196;29;20090;-87
2023/05/23 06:13:32;;;;;;;26.83;11.60;;;13.00;77.40;;;;;;4868099;29;20467;-90
2023/05/23 06:15:58;;;;;;;24.17;10.95;;;13.10;78.10;;;;;;4875223;29;20020;-88
2023/05/23 06:18:24;;;;;;;27.02;12.38;;;13.10;78.00;;;;;;4885138;29;20020;-89
2023/05/23 06:20:49;;;;;;;25.80;13.55;;;13.10;78.30;;;;;;4881844;29;20347;-89
2023/05/23 06:23:15;;;;;;;25.75;12.35;;;13.10;78.50;;;;;;4875482;29;20088;-88
2023/05/23 06:25:41;;;;;;;25.38;12.15;;;13.20;78.60;;;;;;4873681;29;20056;-87
2023/05/23 06:28:07;;;;;;;22.23;11.45;;;13.20;78.60;;;;;;4892162;29;20354;-87
2023/05/23 06:30:34;;;;;;;26.67;12.55;;;13.20;77.70;;;;;;4879246;29;20041;-88
2023/05/23 06:33:00;;;;;;;29.08;12.35;;;13.20;78.50;;;;;;4875698;29;20368;-87
2023/05/23 06:35:26;;;;;;;28.73;12.88;;;13.40;78.40;;;;;;4880786;29;20561;-88
2023/05/23 06:37:52;;;;;;;27.40;12.15;;;13.30;77.70;;;;;;4890971;29;20565;-87
2023/05/23 06:40:17;;;;;;;24.02;11.25;;;13.10;77.80;;;;;;4875360;29;20539;-87
2023/05/23 06:42:43;;;;;;;23.98;11.85;;;13.10;77.70;;;;;;4877251;29;20041;-88
2023/05/23 06:45:09;;;;;;;22.73;10.98;;;13.20;77.10;;;;;;4875931;29;20346;-87
2023/05/23 06:47:35;;;;;;;23.65;12.43;;;13.20;76.80;;;;;;4892726;29;20580;-87
2023/05/23 06:50:01;;;;;;;21.70;10.80;;;13.20;76.90;;;;;;4875568;29;20033;-87
2023/05/23 06:52:29;;;;;;;24.25;11.73;;;13.20;76.90;;;;;;4876086;29;20458;-87
2023/05/23 06:54:55;;;;;;;23.23;10.88;;;13.00;76.80;;;;;;4891208;29;20031;-86
2023/05/23 06:57:21;;;;;;;26.27;11.13;;;13.00;77.00;;;;;;4877037;29;20037;-87
2023/05/23 06:59:47;;;;;;;23.60;11.65;;;13.10;77.50;;;;;;4880331;29;20131;-86
2023/05/23 07:02:13;;;;;;;22.70;12.23;;;13.10;76.80;;;;;;4879040;29;20036;-85
2023/05/23 07:04:39;;;;;;;23.48;12.13;;;13.10;76.10;;;;;;4881826;29;20028;-87
2023/05/23 07:07:05;;;;;;;23.80;11.27;;;13.10;76.40;;;;;;4886544;29;20046;-86
2023/05/23 07:09:33;;;;;;;21.85;11.40;;;13.10;76.50;;;;;;4895211;29;20431;-86
2023/05/23 07:11:59;;;;;;;21.88;10.35;;;13.10;77.20;;;;;;4895597;29;20092;-87
2023/05/23 07:14:25;;;;;;;24.52;10.25;;;13.00;77.60;;;;;;4883560;29;20906;-86
2023/05/23 07:16:51;;;;;;;26.63;11.23;;;12.90;78.10;;;;;;4877228;29;20044;-89
2023/05/23 07:19:17;;;;;;;24.35;10.93;;;12.80;78.60;;;;;;4881129;29;20032;-88
2023/05/23 07:21:43;;;;;;;22.48;10.35;;;12.80;78.80;;;;;;4880797;29;20108;-87
2023/05/23 07:24:09;;;;;;;26.30;11.43;;;12.90;78.70;;;;;;4880506;29;20468;-87
2023/05/23 07:26:35;;;;;;;20.33;10.05;;;12.90;78.60;;;;;;4889322;29;20041;-84
2023/05/23 07:29:01;;;;;;;22.13;11.05;;;12.90;79.20;;;;;;4904190;29;20119;-86
2023/05/23 07:31:30;;;;;;;22.08;11.43;;;12.90;79.40;;;;;;4885928;29;20032;-86
2023/05/23 07:33:55;;;;;;;27.40;10.23;;;12.80;79.50;;;;;;4884851;29;20091;-85
2023/05/23 07:36:24;;;;;;;22.80;10.25;;;12.90;79.80;;;;;;4880727;29;20482;-87
2023/05/23 07:38:50;;;;;;;24.60;10.20;;;13.00;79.40;;;;;;4896159;29;20238;-86
2023/05/23 07:41:15;;;;;;;26.40;10.68;;;13.00;79.70;;;;;;4893228;29;20075;-85
2023/05/23 07:43:41;;;;;;;20.67;9.65;;;13.00;80.00;;;;;;4892475;29;20056;-85
2023/05/23 07:46:07;;;;;;;20.17;9.55;;;13.10;80.20;;;;;;4893107;29;20394;-85
2023/05/23 07:48:33;;;;;;;22.08;9.77;;;13.10;80.30;;;;;;4889778;29;20033;-85
2023/05/23 07:50:59;;;;;;;22.70;9.63;;;13.10;80.30;;;;;;4896589;29;20039;-84
2023/05/23 07:53:25;;;;;;;25.63;9.13;;;13.10;80.60;;;;;;4897471;29;20072;-85
2023/05/23 07:55:51;;;;;;;18.00;8.40;;;13.10;80.70;;;;;;4879311;29;20036;-87
2023/05/23 07:58:16;;;;;;;18.85;8.05;;;13.20;80.60;;;;;;4875782;29;20021;-86
2023/05/23 08:00:43;;;;;;;19.42;8.00;;;13.30;80.50;;;;;;4876148;29;20033;-87
2023/05/23 08:03:10;;;;;;;18.58;7.72;;;13.20;80.30;;;;;;4876639;29;20044;-86
2023/05/23 08:05:36;;;;;;;18.48;7.72;;;13.20;80.30;;;;;;4880971;29;20045;-88
2023/05/23 08:08:02;;;;;;;16.23;7.10;;;13.10;80.70;;;;;;4893664;29;20037;-89
2023/05/23 08:10:28;;;;;;;14.50;5.90;;;13.20;80.70;;;;;;4879568;29;20131;-89
2023/05/23 08:12:54;;;;;;;12.63;5.30;;;13.10;80.40;;;;;;4877327;29;20666;-87
2023/05/23 08:15:22;;;;;;;12.23;5.32;;;13.20;80.80;;;;;;4879238;29;20041;-89
2023/05/23 08:17:48;;;;;;;12.95;5.70;;;13.30;80.50;;;;;;4876629;29;20056;-89
2023/05/23 08:20:14;;;;;;;15.68;5.45;;;13.50;80.30;;;;;;4881912;29;20125;-88
2023/05/23 08:22:40;;;;;;;14.07;5.47;;;13.40;80.20;;;;;;4877432;29;20590;-88
2023/05/23 08:25:06;;;;;;;12.32;4.75;;;13.50;80.30;;;;;;4877077;29;20021;-89
2023/05/23 08:27:32;;;;;;;13.40;5.30;;;13.40;80.70;;;;;;4873653;29;20049;-88
2023/05/23 08:30:02;;;;;;;14.93;5.78;;;13.10;81.60;;;;;;4883714;29;20039;-88
2023/05/23 08:32:28;;;;;;;14.82;5.20;;;13.10;82.10;;;;;;4877913;29;20043;-88
2023/05/23 08:34:53;;;;;;;15.48;5.75;;;13.30;82.20;;;;;;4882205;29;20033;-86
2023/05/23 08:37:19;;;;;;;13.27;5.25;;;13.30;82.30;;;;;;4894710;29;20033;-86
2023/05/23 08:39:45;;;;;;;11.07;4.32;;;13.20;81.90;;;;;;4890803;29;20063;-88
2023/05/23 08:42:11;;;;;;;12.77;4.82;;;13.30;81.20;;;;;;4877661;29;20119;-87
2023/05/23 08:44:36;;;;;;;13.10;4.82;;;13.20;81.50;;;;;;4887258;29;20047;-86
2023/05/23 08:47:06;;;;;;;12.50;5.22;;;13.30;81.20;;;;;;4877420;29;20037;-87
2023/05/23 08:49:32;;;;;;;17.33;4.82;;;13.30;81.10;;;;;;4895703;29;20032;-87
2023/05/23 08:52:02;;;;;;;11.68;4.70;;;13.40;81.20;;;;;;4882195;29;20055;-87
2023/05/23 08:54:29;;;;;;;13.85;5.28;;;13.30;80.80;;;;;;4886416;29;20024;-85
2023/05/23 08:56:55;;;;;;;12.40;4.95;;;13.40;80.90;;;;;;4892821;29;20525;-88
2023/05/23 08:59:22;;;;;;;14.23;5.38;;;13.60;80.20;;;;;;4894411;29;20878;-85
2023/05/23 09:01:50;;;;;;;11.32;4.72;;;13.60;79.20;;;;;;4894885;29;20048;-85
2023/05/23 09:04:16;;;;;;;12.48;4.97;;;13.70;78.60;;;;;;4879543;29;20084;-86
2023/05/23 09:06:42;;;;;;;14.05;4.20;;;13.90;78.20;;;;;;4893536;29;20033;-88
2023/05/23 09:09:08;;;;;;;13.45;4.30;;;14.10;77.40;;;;;;4886068;29;20049;-86
2023/05/23 09:11:34;;;;;;;9.82;3.38;;;14.40;76.80;;;;;;4879353;29;20061;-88
2023/05/23 09:14:00;;;;;;;13.35;3.80;;;14.70;75.00;;;;;;4883970;29;20024;-89
2023/05/23 09:16:32;;;;;;;15.13;3.60;;;14.90;74.10;;;;;;4888651;29;20148;-86
2023/05/23 09:18:58;;;;;;;12.50;3.47;;;14.90;73.60;;;;;;4876749;29;20136;-87
2023/05/23 09:21:24;;;;;;;13.35;4.38;;;14.70;72.40;;;;;;4882967;29;20048;-85
2023/05/23 09:23:51;;;;;;;11.00;3.83;;;14.70;73.10;;;;;;4900399;29;20029;-87
2023/05/23 09:26:16;;;;;;;16.08;4.32;;;14.90;72.30;;;;;;4878459;29;20056;-89
2023/05/23 09:28:44;;;;;;;15.45;3.90;;;14.90;72.30;;;;;;4893266;29;20020;-89
2023/05/23 09:31:09;;;;;;;15.50;4.63;;;15.00;72.60;;;;;;4889614;29;20104;-87
2023/05/23 09:33:51;;;;;;;15.45;3.10;;;15.20;71.20;;;;;;4893711;29;20060;-89
2023/05/23 09:36:18;;;;;;;13.20;4.15;;;15.10;72.00;;;;;;4892990;29;20132;-87
2023/05/23 09:38:46;;;;;;;17.60;4.55;;;15.40;70.10;;;;;;4915847;29;20107;-87
2023/05/23 09:41:14;;;;;;;16.40;3.90;;;15.10;70.40;;;;;;4890466;29;20067;-88
2023/05/23 09:43:49;;;;;;;15.65;3.97;;;15.00;70.00;;;;;;4882594;29;20029;-88
2023/05/23 09:46:15;;;;;;;14.35;4.13;;;15.10;69.20;;;;;;4882017;29;20396;-89
2023/05/23 09:48:50;;;;;;;18.38;5.28;;;15.30;69.60;;;;;;4884854;29;20028;-88
2023/05/23 09:51:20;;;;;;;17.92;4.88;;;15.40;67.50;;;;;;4881116;29;20108;-88
2023/05/23 09:53:46;;;;;;;16.13;4.60;;;15.50;67.70;;;;;;4890980;29;20029;-89
2023/05/23 09:56:14;;;;;;;18.83;5.50;;;15.40;67.40;;;;;;4879683;29;20448;-88
2023/05/23 09:58:42;;;;;;;12.50;4.85;;;15.20;67.10;;;;;;4881657;29;20032;-88
2023/05/23 10:01:10;;;;;;;19.38;5.03;;;15.10;68.10;;;;;;4879647;29;20068;-87
2023/05/23 10:03:53;;;;;;;18.63;5.38;;;15.10;68.50;;;;;;4880705;29;20069;-87
2023/05/23 10:06:36;;;;;;;16.88;5.22;;;15.40;68.30;;;;;;4874001;29;20130;-89
2023/05/23 10:09:04;;;;;;;17.85;5.63;;;15.40;67.50;;;;;;4874343;29;20028;-86
2023/05/23 10:11:33;;;;;;;19.33;6.25;;;15.60;64.20;;;;;;4902084;29;20083;-87
2023/05/23 10:14:01;;;;;;;14.30;5.65;;;15.60;64.80;;;;;;4904489;29;20041;-89
2023/05/23 10:17:03;;;;;;;19.38;6.45;;;15.50;66.00;;;;;;4885405;29;20348;-86
2023/05/23 10:19:46;;;;;;;17.52;5.57;;;15.60;65.90;;;;;;4880029;29;20049;-86
2023/05/23 10:22:14;;;;;;;16.95;4.65;;;15.80;65.00;;;;;;4883113;29;20040;-88
2023/05/23 10:24:41;;;;;;;21.00;5.45;;;15.60;64.90;;;;;;4877213;29;20111;-86
2023/05/23 10:27:07;;;;;;;17.83;5.30;;;15.60;65.80;;;;;;4864391;29;20045;-89
2023/05/23 10:29:34;;;;;;;23.33;7.00;;;15.70;65.90;;;;;;4867222;29;20047;-88
2023/05/23 10:32:01;;;;;;;15.25;5.38;;;15.70;64.80;;;;;;4883006;29;20063;-90
2023/05/23 10:34:46;;;;;;;14.75;5.00;;;16.00;63.90;;;;;;4902448;29;20028;-87
2023/05/23 10:37:22;;;;;;;21.17;5.50;;;16.30;61.40;;;;;;4878115;29;20063;-90
2023/05/23 10:40:01;;;;;;;17.13;5.43;;;15.90;63.40;;;;;;4882931;29;20032;-90
2023/05/23 10:42:44;;;;;;;16.48;5.15;;;16.20;63.30;;;;;;4870775;29;20388;-88
2023/05/23 10:45:21;;;;;;;20.17;5.40;;;16.50;63.10;;;;;;4882500;29;20029;-88
2023/05/23 10:47:48;;;;;;;19.63;4.88;;;16.40;62.70;;;;;;4866436;29;20043;-88
2023/05/23 10:50:32;;;;;;;19.38;5.80;;;16.50;62.30;;;;;;4881093;29;20084;-88
2023/05/23 10:53:02;;;;;;;17.25;4.72;;;16.60;62.20;;;;;;4881368;29;20041;-90
2023/05/23 10:55:33;;;;;;;12.40;4.40;;;16.60;62.00;;;;;;4886511;29;20635;-88
2023/05/23 10:58:09;;;;;;;17.08;5.95;;;16.60;60.80;;;;;;4883510;29;20113;-88
2023/05/23 11:00:35;;;;;;;16.48;4.90;;;16.50;60.60;;;;;;4885719;29;20036;-88
2023/05/23 11:03:08;;;;;;;24.02;5.35;;;16.20;61.10;;;;;;4887400;29;20059;-89
2023/05/23 11:05:37;;;;;;;25.35;6.45;;;15.90;62.00;;;;;;4883057;29;20033;-89
2023/05/23 11:08:13;;;;;;;20.95;5.43;;;16.00;63.50;;;;;;4883971;29;20163;-88
2023/05/23 11:10:54;;;;;;;17.25;5.32;;;16.50;61.40;;;;;;4875903;29;20049;-88
2023/05/23 11:13:21;;;;;;;15.30;4.60;;;16.80;60.70;;;;;;4896729;29;20043;-88
2023/05/23 11:15:47;;;;;;;18.38;4.90;;;16.50;59.90;;;;;;4897251;29;20092;-87
2023/05/23 11:18:30;;;;;;;17.27;4.82;;;16.70;60.00;;;;;;4881802;29;20136;-88
2023/05/23 11:20:58;;;;;;;14.80;5.03;;;16.80;59.10;;;;;;4880415;29;20463;-89
2023/05/23 11:23:39;;;;;;;17.08;4.38;;;16.70;58.40;;;;;;4877983;29;20028;-90
2023/05/23 11:26:28;;;;;;;18.02;4.72;;;16.80;58.90;;;;;;4871339;29;20414;-89
2023/05/23 11:28:58;;;;;;;17.67;4.70;;;16.60;58.20;;;;;;4900036;29;20028;-90
2023/05/23 11:31:24;;;;;;;16.75;4.53;;;16.60;57.40;;;;;;4882439;29;20036;-89
2023/05/23 11:33:50;;;;;;;18.70;5.50;;;16.60;58.50;;;;;;4880618;29;20052;-89
2023/05/23 11:36:16;;;;;;;18.20;5.15;;;16.80;58.30;;;;;;4882818;29;20045;-90
2023/05/23 11:38:45;;;;;;;13.68;3.97;;;17.00;58.30;;;;;;4881552;29;20032;-89
2023/05/23 11:41:11;;;;;;;17.95;4.85;;;17.30;58.20;;;;;;4873838;29;20159;-89
2023/05/23 11:43:36;;;;;;;14.45;4.65;;;17.00;57.10;;;;;;4882551;29;20080;-90
2023/05/23 11:46:08;;;;;;;16.30;5.20;;;17.20;57.30;;;;;;4889201;29;20131;-89
2023/05/23 11:48:35;;;;;;;20.42;5.78;;;17.10;57.90;;;;;;4883400;29;20036;-89
2023/05/23 11:51:01;;;;;;;17.13;4.22;;;16.70;57.40;;;;;;4890926;29;20040;-88
2023/05/23 11:53:27;;;;;;;14.85;4.57;;;16.60;57.50;;;;;;4886208;29;20017;-88
2023/05/23 11:55:56;;;;;;;15.88;4.28;;;16.70;58.00;;;;;;4894997;29;20035;-88
2023/05/23 11:58:26;;;;;;;20.40;4.63;;;17.10;58.30;;;;;;4906708;29;20068;-88
2023/05/23 12:01:02;;;;;;;17.67;4.72;;;17.20;58.90;;;;;;4887586;29;20075;-88
2023/05/23 12:03:28;;;;;;;17.15;4.78;;;16.90;58.60;;;;;;4908691;29;20363;-88
2023/05/23 12:05:54;;;;;;;12.93;4.10;;;16.80;59.80;;;;;;4877771;29;20028;-88
2023/05/23 12:08:20;;;;;;;17.67;4.65;;;16.90;57.60;;;;;;4875489;29;20031;-90
2023/05/23 12:10:52;;;;;;;20.92;5.05;;;17.00;58.00;;;;;;4875883;29;20040;-91
2023/05/23 12:13:19;;;;;;;15.38;4.53;;;17.30;57.00;;;;;;4884185;29;20206;-90
2023/05/23 12:15:46;;;;;;;20.42;5.15;;;17.60;58.00;;;;;;4883131;29;20304;-91
2023/05/23 12:18:12;;;;;;;16.23;4.63;;;17.50;57.90;;;;;;4885786;29;20025;-92
2023/05/23 12:20:39;;;;;;;16.20;4.43;;;17.20;57.00;;;;;;4893883;29;20108;-91
2023/05/23 12:23:05;;;;;;;15.27;4.70;;;17.30;56.00;;;;;;4904512;29;20405;-90
2023/05/23 12:25:43;;;;;;;15.80;4.30;;;17.20;56.70;;;;;;4900788;29;20044;-88
2023/05/23 12:28:12;;;;;;;17.50;4.35;;;16.90;56.80;;;;;;4906269;29;20068;-89
2023/05/23 12:30:42;;;;;;;19.48;4.13;;;16.70;57.70;;;;;;4897389;29;20064;-88
2023/05/23 12:33:08;;;;;;;18.30;4.65;;;17.00;57.90;;;;;;4887533;29;20037;-90
2023/05/23 12:35:34;;;;;;;12.20;4.28;;;17.30;56.60;;;;;;4886205;29;20037;-89